Time;durP1;ratioP1;P1;durP2;ratioP2;P2;SDS_P1;SDS_P2;PMS_P1;PMS_P2;Temp;Humidity;BMP_temperature;BMP_pressure;BME280_temperature;BME280_humidity;BME280_pressure;Samples;Min_cycle;Max_cycle;Signal;HPM_P1;HPM_P2
2022/09/20 00:00:44;;;;;;;2.47;0.30;;;24.10;38.40;;;;;;4820526;29;20129;-49
2022/09/20 00:03:12;;;;;;;0.73;0.10;;;24.00;38.20;;;;;;4820561;29;20095;-50
2022/09/20 00:05:41;;;;;;;0.55;0.10;;;24.00;38.30;;;;;;4829834;29;20052;-48
2022/09/20 00:08:13;;;;;;;1.55;0.75;;;24.00;38.20;;;;;;4819747;29;20567;-53
2022/09/20 00:10:41;;;;;;;0.93;0.10;;;24.00;38.30;;;;;;4820242;29;20141;-49
2022/09/20 00:13:11;;;;;;;4.50;0.68;;;24.00;38.20;;;;;;4820273;29;20061;-54
2022/09/20 00:15:41;;;;;;;3.13;0.10;;;24.00;38.20;;;;;;4820397;29;20058;-50
2022/09/20 00:18:08;;;;;;;0.45;0.10;;;24.00;38.20;;;;;;4820086;29;20498;-50
2022/09/20 00:20:35;;;;;;;1.73;0.10;;;24.00;38.30;;;;;;4820196;29;20132;-50
2022/09/20 00:23:03;;;;;;;1.77;0.10;;;24.00;38.30;;;;;;4820309;29;20435;-50
2022/09/20 00:25:32;;;;;;;0.93;0.10;;;24.00;38.40;;;;;;4820171;29;20065;-50
2022/09/20 00:27:59;;;;;;;0.63;0.10;;;24.00;38.40;;;;;;4819523;29;20122;-51
2022/09/20 00:30:26;;;;;;;0.20;0.10;;;23.90;38.40;;;;;;4820058;29;20050;-53
2022/09/20 00:32:53;;;;;;;0.30;0.10;;;23.90;38.50;;;;;;4819814;29;20066;-50
2022/09/20 00:35:19;;;;;;;0.45;0.10;;;23.90;38.60;;;;;;4818833;29;20050;-49
2022/09/20 00:37:46;;;;;;;0.15;0.10;;;23.90;38.60;;;;;;4820079;29;20046;-50
2022/09/20 00:40:15;;;;;;;0.95;0.10;;;23.90;38.70;;;;;;4820064;29;20119;-49
2022/09/20 00:42:44;;;;;;;3.03;0.10;;;23.90;38.80;;;;;;4819371;29;20105;-50
2022/09/20 00:45:20;;;;;;;0.03;0.00;;;23.90;38.80;;;;;;4820035;29;20100;-52
2022/09/20 00:47:51;;;;;;;0.10;0.10;;;23.90;38.90;;;;;;4820013;29;20508;-51
2022/09/20 00:50:28;;;;;;;1.77;0.00;;;23.90;39.00;;;;;;4819895;29;20137;-49
2022/09/20 00:53:02;;;;;;;0.20;0.17;;;23.90;39.00;;;;;;4819847;29;20453;-50
2022/09/20 00:55:30;;;;;;;0.60;0.20;;;23.90;39.10;;;;;;4813282;29;20137;-52
2022/09/20 00:57:59;;;;;;;0.63;0.00;;;23.90;39.10;;;;;;4814587;29;20051;-53
2022/09/20 01:00:27;;;;;;;0.60;0.57;;;23.80;39.20;;;;;;4817677;29;20050;-53
2022/09/20 01:02:58;;;;;;;0.15;0.10;;;23.90;39.20;;;;;;4817342;29;20046;-49
2022/09/20 01:05:26;;;;;;;1.95;0.10;;;23.80;39.20;;;;;;4817684;29;20056;-49
2022/09/20 01:07:54;;;;;;;0.38;0.10;;;23.80;39.30;;;;;;4823317;29;20054;-50
2022/09/20 01:10:21;;;;;;;1.45;0.10;;;23.80;39.30;;;;;;4822836;29;20062;-49
2022/09/20 01:12:50;;;;;;;1.25;0.10;;;23.80;39.20;;;;;;4822943;29;20061;-49
2022/09/20 01:15:19;;;;;;;0.25;0.10;;;23.80;39.20;;;;;;4822869;29;20591;-49
2022/09/20 01:17:50;;;;;;;0.45;0.08;;;23.80;39.30;;;;;;4823042;29;20121;-50
2022/09/20 01:20:22;;;;;;;0.43;0.00;;;23.80;39.30;;;;;;4823104;29;20042;-49
2022/09/20 01:23:34;;;;;;;0.10;0.10;;;23.70;39.20;;;;;;4823193;29;20384;-52
2022/09/20 01:26:44;;;;;;;0.80;0.10;;;23.80;39.20;;;;;;4765855;30;20125;-50
2022/09/20 01:29:25;;;;;;;0.30;0.00;;;23.70;39.30;;;;;;4766250;30;20064;-51
2022/09/20 01:31:55;;;;;;;0.10;0.10;;;23.70;39.50;;;;;;4766109;30;20059;-50
2022/09/20 01:34:29;;;;;;;0.68;0.10;;;23.70;39.60;;;;;;4767213;30;20071;-50
2022/09/20 01:37:06;;;;;;;0.00;0.00;;;23.70;39.70;;;;;;4766294;30;20618;-49
2022/09/20 01:39:40;;;;;;;0.77;0.10;;;23.70;39.70;;;;;;4765476;30;20071;-50
2022/09/20 01:42:10;;;;;;;0.15;0.10;;;23.70;39.70;;;;;;4765891;30;20051;-51
2022/09/20 01:44:45;;;;;;;0.20;0.10;;;23.70;39.80;;;;;;4766278;30;20113;-48
2022/09/20 01:47:31;;;;;;;0.23;0.23;;;23.70;39.80;;;;;;4766046;30;20470;-49
2022/09/20 01:50:11;;;;;;;2.47;0.10;;;23.70;39.80;;;;;;4766732;30;20546;-52
2022/09/20 01:53:18;;;;;;;1.48;0.10;;;23.70;39.80;;;;;;4766382;30;20139;-52
2022/09/20 01:56:20;;;;;;;0.85;0.38;;;23.60;39.70;;;;;;4765621;30;20051;-50
2022/09/20 01:59:20;;;;;;;0.40;0.10;;;23.60;39.60;;;;;;4713197;30;20123;-49
2022/09/20 02:02:14;;;;;;;0.45;0.00;;;23.60;39.70;;;;;;4744867;30;20136;-53
2022/09/20 02:05:13;;;;;;;0.17;0.10;;;23.60;39.70;;;;;;4765637;30;20044;-51
2022/09/20 02:07:59;;;;;;;1.00;0.30;;;23.50;39.60;;;;;;4765499;30;20109;-49
2022/09/20 02:10:53;;;;;;;0.98;0.28;;;23.50;39.60;;;;;;4764606;30;20055;-50
2022/09/20 02:13:29;;;;;;;0.40;0.10;;;23.50;39.50;;;;;;4760220;30;20138;-51
2022/09/20 02:16:20;;;;;;;0.60;0.00;;;23.50;39.60;;;;;;4765875;30;20075;-50
2022/09/20 02:19:14;;;;;;;0.93;0.00;;;23.50;39.50;;;;;;4765946;30;20594;-50
2022/09/20 02:21:51;;;;;;;1.33;0.10;;;23.50;39.60;;;;;;4766406;30;20055;-50
2022/09/20 02:24:28;;;;;;;0.15;0.10;;;23.50;39.60;;;;;;4765782;30;20162;-50
2022/09/20 02:27:05;;;;;;;0.10;0.10;;;23.50;39.60;;;;;;4765197;30;20083;-48
2022/09/20 02:29:42;;;;;;;0.10;0.10;;;23.50;40.20;;;;;;4765237;30;20067;-49
2022/09/20 02:32:28;;;;;;;1.75;0.10;;;23.50;39.50;;;;;;4776461;29;20496;-52
2022/09/20 02:35:19;;;;;;;1.52;0.10;;;23.50;39.40;;;;;;4827387;29;20078;-51
2022/09/20 02:38:00;;;;;;;0.30;0.00;;;23.50;39.50;;;;;;4821895;29;20047;-52
2022/09/20 02:40:49;;;;;;;0.10;0.00;;;23.40;39.50;;;;;;4822167;29;20046;-53
2022/09/20 02:43:30;;;;;;;0.70;0.10;;;23.50;39.60;;;;;;4816837;29;20073;-50
2022/09/20 02:46:03;;;;;;;1.10;0.10;;;23.40;39.70;;;;;;4821811;29;20046;-50
2022/09/20 02:48:39;;;;;;;1.00;0.00;;;23.40;39.70;;;;;;4821725;29;20055;-49
2022/09/20 02:51:16;;;;;;;0.15;0.00;;;23.40;39.80;;;;;;4822134;29;20133;-52
2022/09/20 02:53:49;;;;;;;0.85;0.10;;;23.40;39.70;;;;;;4821330;29;20069;-49
2022/09/20 02:56:23;;;;;;;1.63;0.10;;;23.40;39.70;;;;;;4821820;29;20099;-54
2022/09/20 02:58:59;;;;;;;0.20;0.10;;;23.40;39.70;;;;;;4822052;29;20055;-51
2022/09/20 03:01:38;;;;;;;0.20;0.00;;;23.40;39.70;;;;;;4822097;29;20050;-51
2022/09/20 03:04:20;;;;;;;1.05;0.10;;;23.40;39.70;;;;;;4821617;29;20070;-54
2022/09/20 03:06:57;;;;;;;0.20;0.10;;;23.40;39.70;;;;;;4821530;29;20045;-53
2022/09/20 03:09:33;;;;;;;0.80;0.00;;;23.30;39.70;;;;;;4815906;29;20055;-50
2022/09/20 03:12:10;;;;;;;0.70;0.00;;;23.40;39.80;;;;;;4821248;29;20091;-56
2022/09/20 03:14:40;;;;;;;0.25;0.00;;;23.40;39.80;;;;;;4821695;29;20432;-52
2022/09/20 03:17:22;;;;;;;0.22;0.00;;;23.30;39.80;;;;;;4821359;29;20042;-49
2022/09/20 03:20:08;;;;;;;1.65;0.10;;;23.40;39.80;;;;;;4820906;29;20103;-50
2022/09/20 03:22:41;;;;;;;;;;;23.30;39.70;;;;;;4816366;29;20095;-48
2022/09/20 03:25:35;;;;;;;0.70;0.10;;;23.30;39.70;;;;;;4821327;29;19964;-50
2022/09/20 03:28:15;;;;;;;0.20;0.20;;;23.30;39.90;;;;;;4821037;29;20403;-48
2022/09/20 03:30:54;;;;;;;0.63;0.10;;;23.30;39.80;;;;;;4815222;29;20130;-52
2022/09/20 03:33:31;;;;;;;2.85;0.10;;;23.30;40.40;;;;;;4820886;29;20431;-51
2022/09/20 03:36:12;;;;;;;3.17;0.10;;;23.20;39.90;;;;;;4823792;29;20528;-50
2022/09/20 03:38:53;;;;;;;0.63;0.10;;;23.30;40.00;;;;;;4821027;29;20095;-51
2022/09/20 03:41:44;;;;;;;3.13;0.30;;;23.30;40.00;;;;;;4814580;29;20107;-50
2022/09/20 03:44:46;;;;;;;0.10;0.00;;;23.30;40.00;;;;;;4815953;29;20483;-50
2022/09/20 03:47:26;;;;;;;1.08;0.10;;;23.30;40.60;;;;;;4781975;30;20600;-51
2022/09/20 03:50:16;;;;;;;0.17;0.10;;;23.20;40.00;;;;;;4781718;29;20063;-52
2022/09/20 03:53:04;;;;;;;1.23;0.10;;;23.30;40.10;;;;;;4780296;30;20606;-53
2022/09/20 03:55:52;;;;;;;0.77;0.55;;;23.20;39.90;;;;;;4782085;29;20051;-50
2022/09/20 03:58:32;;;;;;;0.30;0.08;;;23.20;39.90;;;;;;4782293;30;20051;-51
2022/09/20 04:01:09;;;;;;;0.20;0.10;;;23.20;40.00;;;;;;4781952;30;20611;-56
2022/09/20 04:03:44;;;;;;;1.65;0.10;;;23.20;40.00;;;;;;4777027;29;20051;-54
2022/09/20 04:06:39;;;;;;;0.40;0.40;;;23.20;40.00;;;;;;4776621;30;20047;-53
2022/09/20 04:09:34;;;;;;;0.10;0.00;;;23.20;40.00;;;;;;4782229;30;20047;-53
2022/09/20 04:12:08;;;;;;;0.20;0.10;;;23.20;40.00;;;;;;4778953;29;20110;-50
2022/09/20 04:14:43;;;;;;;1.45;0.10;;;23.20;40.10;;;;;;4781570;29;20059;-52
2022/09/20 04:17:24;;;;;;;2.28;0.00;;;23.20;40.20;;;;;;4781586;29;20082;-49
2022/09/20 04:20:01;;;;;;;1.35;0.00;;;23.20;40.20;;;;;;4781222;30;20218;-48
2022/09/20 04:22:29;;;;;;;0.32;0.00;;;23.20;40.40;;;;;;4791955;29;20516;-50
2022/09/20 04:25:04;;;;;;;0.13;0.10;;;23.20;40.30;;;;;;4820424;29;20042;-51
2022/09/20 04:27:40;;;;;;;0.25;0.15;;;23.20;40.40;;;;;;4820061;29;20054;-49
2022/09/20 04:30:17;;;;;;;1.30;0.90;;;23.10;40.30;;;;;;4820066;29;20107;-51
2022/09/20 04:32:50;;;;;;;0.55;0.00;;;23.20;40.50;;;;;;4819675;29;20051;-50
2022/09/20 04:38:18;;;;;;;0.47;0.00;;;23.20;40.40;;;;;;4819991;29;20065;-52
2022/09/20 04:41:04;;;;;;;0.20;0.00;;;23.20;40.40;;;;;;4819323;29;20046;-49
2022/09/20 04:44:00;;;;;;;0.10;0.00;;;23.20;40.40;;;;;;4819886;29;20068;-49
2022/09/20 04:46:54;;;;;;;1.08;0.20;;;23.20;40.50;;;;;;4762853;30;20135;-50
2022/09/20 04:49:45;;;;;;;0.38;0.03;;;23.20;40.60;;;;;;4760746;30;20091;-49
2022/09/20 04:52:38;;;;;;;1.95;0.10;;;23.10;40.60;;;;;;4709447;30;20541;-50
2022/09/20 04:55:38;;;;;;;2.78;0.52;;;23.10;40.60;;;;;;4710402;30;20092;-51
2022/09/20 04:58:32;;;;;;;0.57;0.00;;;23.10;40.50;;;;;;4710183;30;20057;-52
2022/09/20 05:01:43;;;;;;;1.02;0.10;;;23.10;41.10;;;;;;4706167;30;20085;-52
2022/09/20 05:04:55;;;;;;;1.55;0.10;;;23.10;40.60;;;;;;4709721;30;20063;-54
2022/09/20 05:07:59;;;;;;;0.45;0.03;;;23.00;40.50;;;;;;4709523;30;20091;-51
2022/09/20 05:11:13;;;;;;;0.38;0.08;;;23.00;40.50;;;;;;4707940;30;20523;-50
2022/09/20 05:13:57;;;;;;;0.10;0.10;;;23.00;40.40;;;;;;4710572;30;20061;-55
2022/09/20 05:16:38;;;;;;;0.38;0.05;;;23.00;40.50;;;;;;4709316;30;20091;-50
2022/09/20 05:19:19;;;;;;;1.88;1.20;;;23.00;40.40;;;;;;4705624;30;20518;-50
2022/09/20 05:22:38;;;;;;;0.35;0.10;;;23.00;40.50;;;;;;4707338;30;20147;-51
2022/09/20 05:25:20;;;;;;;2.28;0.85;;;23.00;40.50;;;;;;4781122;30;20059;-54
2022/09/20 05:27:53;;;;;;;1.25;0.10;;;23.00;40.60;;;;;;4778666;29;20051;-50
2022/09/20 05:30:30;;;;;;;2.50;0.10;;;23.00;40.60;;;;;;4815023;29;20062;-50
2022/09/20 05:33:09;;;;;;;0.17;0.17;;;23.00;40.60;;;;;;4818881;29;20067;-49
2022/09/20 05:35:43;;;;;;;0.80;0.10;;;23.00;40.60;;;;;;4822145;29;20042;-53
2022/09/20 05:38:22;;;;;;;4.45;0.10;;;23.00;40.60;;;;;;4819103;29;20594;-51
2022/09/20 05:41:04;;;;;;;1.08;0.00;;;23.00;40.60;;;;;;4814664;29;20046;-49
2022/09/20 05:43:34;;;;;;;1.45;0.10;;;23.00;40.50;;;;;;4819093;29;20134;-51
2022/09/20 05:46:12;;;;;;;1.38;0.00;;;23.00;40.60;;;;;;4821230;29;20826;-52
2022/09/20 05:48:53;;;;;;;2.17;0.10;;;23.00;40.60;;;;;;4815694;29;20059;-54
2022/09/20 05:51:33;;;;;;;0.17;0.10;;;23.00;40.60;;;;;;4818329;29;20115;-49
2022/09/20 05:54:25;;;;;;;2.47;0.10;;;23.00;40.50;;;;;;4821969;29;20057;-52
2022/09/20 05:57:03;;;;;;;0.35;0.10;;;23.00;40.50;;;;;;4821635;29;20524;-49
2022/09/20 05:59:40;;;;;;;3.97;0.05;;;23.00;40.60;;;;;;4816600;29;20038;-51
2022/09/20 06:02:23;;;;;;;0.82;0.10;;;23.00;40.60;;;;;;4821958;29;20150;-51
2022/09/20 06:05:00;;;;;;;1.35;0.10;;;23.00;40.50;;;;;;4822365;29;20073;-52
2022/09/20 06:07:41;;;;;;;1.33;0.20;;;23.00;40.50;;;;;;4818684;29;20042;-53
2022/09/20 06:10:30;;;;;;;0.10;0.10;;;23.00;40.60;;;;;;4821212;29;20058;-53
2022/09/20 06:13:08;;;;;;;1.13;0.20;;;23.00;40.60;;;;;;4822175;29;20065;-50
2022/09/20 06:15:43;;;;;;;1.85;0.20;;;23.00;40.60;;;;;;4820955;29;20054;-54
2022/09/20 06:18:27;;;;;;;0.65;0.10;;;23.00;40.60;;;;;;4819478;29;20508;-53
2022/09/20 06:21:04;;;;;;;1.75;0.10;;;23.00;40.50;;;;;;4815947;29;20054;-51
2022/09/20 06:23:32;;;;;;;1.20;0.10;;;23.00;40.60;;;;;;4821649;29;20129;-50
2022/09/20 06:26:06;;;;;;;0.65;0.10;;;23.00;40.60;;;;;;4821277;29;20052;-49
2022/09/20 06:28:38;;;;;;;3.53;0.30;;;23.00;40.60;;;;;;4820159;29;20053;-58
2022/09/20 06:31:10;;;;;;;2.83;0.10;;;23.00;40.60;;;;;;4816295;29;20090;-59
2022/09/20 06:33:43;;;;;;;2.63;0.10;;;23.00;40.80;;;;;;4822679;29;20064;-59
2022/09/20 06:41:57;;;;;;;2.50;0.20;;;23.30;40.50;;;;;;4803865;29;20058;-61
2022/09/20 06:44:26;;;;;;;3.85;0.28;;;23.30;40.90;;;;;;4815206;29;20152;-64
2022/09/20 06:46:53;;;;;;;0.65;0.20;;;23.40;40.20;;;;;;4820035;29;20528;-65
2022/09/20 06:49:21;;;;;;;2.88;0.10;;;23.50;40.20;;;;;;4821671;29;20107;-68
2022/09/20 06:51:49;;;;;;;1.38;0.15;;;23.60;40.20;;;;;;4820387;29;20134;-66
2022/09/20 06:54:19;;;;;;;2.22;0.43;;;23.60;40.10;;;;;;4821010;29;20053;-63
2022/09/20 06:56:47;;;;;;;2.22;0.32;;;23.70;40.10;;;;;;4820990;29;20141;-68
2022/09/20 06:59:16;;;;;;;3.70;0.50;;;23.70;40.10;;;;;;4820011;29;20043;-71
2022/09/20 07:01:43;;;;;;;1.00;0.20;;;23.80;40.10;;;;;;4820996;29;20054;-68
2022/09/20 07:04:10;;;;;;;3.92;0.80;;;23.80;40.10;;;;;;4819381;29;20389;-63
2022/09/20 07:06:38;;;;;;;1.70;0.15;;;23.90;40.00;;;;;;4820926;29;20039;-61
2022/09/20 07:09:06;;;;;;;0.43;0.10;;;23.90;40.00;;;;;;4820290;29;20529;-60
2022/09/20 07:11:34;;;;;;;1.80;0.20;;;23.90;39.90;;;;;;4821916;29;20107;-69
2022/09/20 07:14:02;;;;;;;0.50;0.10;;;24.00;40.00;;;;;;4818800;29;20042;-62
2022/09/20 07:16:30;;;;;;;0.63;0.10;;;24.10;40.00;;;;;;4820639;29;20046;-61
2022/09/20 07:18:58;;;;;;;2.33;0.20;;;24.10;39.90;;;;;;4816798;29;20046;-55
2022/09/20 07:21:26;;;;;;;1.42;0.20;;;24.10;39.90;;;;;;4817708;29;20449;-71
2022/09/20 07:23:54;;;;;;;0.75;0.10;;;24.20;39.90;;;;;;4821697;29;20073;-72
2022/09/20 07:26:24;;;;;;;3.45;0.10;;;24.20;39.90;;;;;;4817949;29;20531;-68
2022/09/20 07:28:51;;;;;;;4.75;1.88;;;24.30;39.90;;;;;;4819144;29;20465;-63
2022/09/20 07:31:19;;;;;;;2.38;0.52;;;24.40;39.90;;;;;;4820848;29;20078;-66
2022/09/20 07:33:48;;;;;;;0.25;0.20;;;24.40;39.90;;;;;;4822474;29;20061;-64
2022/09/20 07:36:16;;;;;;;1.33;0.03;;;24.50;39.90;;;;;;4820934;29;20051;-62
2022/09/20 07:38:46;;;;;;;3.60;0.10;;;24.50;39.80;;;;;;4819986;29;20042;-59
2022/09/20 07:41:14;;;;;;;1.38;0.20;;;24.50;39.80;;;;;;4820397;29;20130;-61
2022/09/20 07:43:42;;;;;;;2.03;0.25;;;24.60;39.80;;;;;;4802066;29;20058;-63
2022/09/20 07:46:12;;;;;;;0.63;0.10;;;24.70;39.80;;;;;;4820323;29;20134;-66
2022/09/20 07:48:40;;;;;;;1.67;0.20;;;24.70;39.70;;;;;;4820293;29;20038;-64
2022/09/20 07:51:10;;;;;;;0.98;0.10;;;24.70;39.60;;;;;;4820779;29;20050;-52
2022/09/20 07:53:37;;;;;;;0.25;0.20;;;24.80;39.60;;;;;;4816902;29;20134;-57
2022/09/20 07:56:07;;;;;;;0.40;0.35;;;24.90;39.60;;;;;;4820235;29;20583;-61
2022/09/20 07:58:35;;;;;;;0.82;0.10;;;24.90;39.50;;;;;;4819859;29;20042;-60
2022/09/20 08:01:06;;;;;;;0.20;0.10;;;25.00;39.40;;;;;;4820492;29;20074;-76
2022/09/20 08:03:34;;;;;;;0.30;0.10;;;25.10;39.50;;;;;;4821948;29;20074;-66
2022/09/20 08:06:01;;;;;;;1.20;0.30;;;25.10;39.40;;;;;;4819485;29;20125;-60
2022/09/20 08:08:32;;;;;;;2.05;0.10;;;25.10;39.40;;;;;;4819880;29;20046;-63
2022/09/20 08:11:05;;;;;;;3.42;0.63;;;25.20;39.30;;;;;;4819103;29;20086;-62
2022/09/20 08:13:35;;;;;;;1.90;1.45;;;25.30;39.30;;;;;;4819624;29;20042;-64
2022/09/20 08:16:03;;;;;;;1.05;0.10;;;25.30;39.20;;;;;;4813008;29;20047;-56
2022/09/20 08:18:31;;;;;;;1.30;0.10;;;25.40;39.20;;;;;;4818647;29;20496;-57
2022/09/20 08:21:05;;;;;;;2.15;0.10;;;25.40;39.10;;;;;;4819675;29;20129;-60
2022/09/20 08:23:34;;;;;;;4.28;0.20;;;25.50;39.10;;;;;;4815033;29;20088;-66
2022/09/20 08:26:01;;;;;;;2.53;0.20;;;25.60;39.10;;;;;;4818886;29;20042;-66
2022/09/20 08:28:28;;;;;;;1.40;0.10;;;25.60;39.00;;;;;;4822768;29;20050;-66
2022/09/20 08:31:01;;;;;;;1.10;0.10;;;25.60;38.90;;;;;;4814656;29;20050;-56
2022/09/20 08:33:28;;;;;;;0.43;0.10;;;25.70;38.90;;;;;;4813643;29;20073;-55
2022/09/20 08:35:55;;;;;;;1.95;0.10;;;25.70;38.80;;;;;;4819419;29;20465;-54
2022/09/20 08:38:25;;;;;;;0.20;0.10;;;25.70;38.60;;;;;;4819386;29;20125;-56
2022/09/20 08:40:57;;;;;;;4.05;0.10;;;25.70;38.40;;;;;;4819477;29;20111;-61
2022/09/20 08:43:28;;;;;;;2.08;0.20;;;25.80;39.10;;;;;;4814371;29;20054;-69
2022/09/20 08:45:57;;;;;;;0.20;0.10;;;25.80;38.50;;;;;;4804771;29;20046;-63
2022/09/20 08:48:28;;;;;;;2.95;0.25;;;25.80;38.50;;;;;;4821762;29;20503;-63
2022/09/20 08:50:56;;;;;;;2.83;0.20;;;25.80;38.60;;;;;;4819963;29;20082;-70
2022/09/20 08:53:23;;;;;;;1.10;0.20;;;25.80;38.60;;;;;;4820497;29;20129;-64
2022/09/20 08:55:50;;;;;;;4.78;0.17;;;25.80;38.70;;;;;;4818750;29;20051;-62
2022/09/20 08:58:18;;;;;;;1.05;0.30;;;25.80;38.70;;;;;;4818354;29;20140;-57
2022/09/20 09:00:47;;;;;;;0.93;0.10;;;25.90;38.80;;;;;;4811728;29;20082;-70
2022/09/20 09:03:16;;;;;;;6.90;0.32;;;25.90;38.80;;;;;;4820199;29;20052;-56
2022/09/20 09:05:46;;;;;;;0.50;0.10;;;25.90;39.50;;;;;;4819922;29;20058;-69
2022/09/20 09:08:15;;;;;;;1.70;0.10;;;25.90;39.30;;;;;;4818161;29;20062;-60
2022/09/20 09:10:44;;;;;;;5.25;0.20;;;25.90;39.20;;;;;;4818867;29;20054;-63
2022/09/20 09:13:25;;;;;;;1.58;0.45;;;26.00;39.20;;;;;;4819064;29;20054;-63
2022/09/20 09:15:56;;;;;;;0.60;0.10;;;26.00;39.30;;;;;;4818677;29;20138;-63
2022/09/20 09:18:32;;;;;;;11.25;0.20;;;26.00;39.30;;;;;;4819811;29;20042;-52
2022/09/20 09:21:03;;;;;;;;;;;26.00;40.00;;;;;;4822590;29;20105;-57
2022/09/20 09:23:35;;;;;;;6.40;0.35;;;26.00;39.30;;;;;;4823420;29;19928;-62
2022/09/20 09:26:05;;;;;;;1.58;0.20;;;26.00;39.50;;;;;;4819489;29;20043;-61
2022/09/20 09:28:35;;;;;;;3.72;0.17;;;26.00;39.50;;;;;;4816639;29;20397;-57
2022/09/20 09:31:14;;;;;;;4.32;0.10;;;26.00;39.40;;;;;;4816796;29;20480;-60
2022/09/20 09:33:45;;;;;;;1.85;0.30;;;26.10;39.40;;;;;;4821765;29;20483;-55
2022/09/20 09:36:15;;;;;;;6.63;0.25;;;26.10;39.30;;;;;;4821268;29;20046;-59
2022/09/20 09:38:45;;;;;;;1.60;0.10;;;26.10;39.30;;;;;;4821854;29;20126;-53
2022/09/20 09:41:25;;;;;;;2.83;1.00;;;26.20;39.30;;;;;;4821108;29;20054;-53
2022/09/20 09:44:03;;;;;;;3.25;0.20;;;26.20;39.20;;;;;;4821982;29;20050;-60
2022/09/20 09:46:33;;;;;;;1.15;0.20;;;26.30;39.30;;;;;;4822376;29;20050;-61
2022/09/20 09:49:12;;;;;;;3.28;0.32;;;26.30;39.30;;;;;;4821047;29;20054;-57
2022/09/20 09:51:42;;;;;;;1.23;0.20;;;26.30;39.20;;;;;;4833476;29;20050;-57
2022/09/20 09:54:18;;;;;;;1.95;0.20;;;26.40;39.30;;;;;;4821048;29;20043;-60
2022/09/20 09:57:00;;;;;;;0.35;0.15;;;26.40;39.20;;;;;;4821627;29;20046;-59
2022/09/20 09:59:49;;;;;;;1.77;0.10;;;26.50;39.30;;;;;;4818864;29;20209;-58
2022/09/20 10:02:31;;;;;;;2.47;0.50;;;26.50;39.30;;;;;;4817334;29;20102;-54
2022/09/20 10:05:03;;;;;;;1.38;0.77;;;26.60;39.30;;;;;;4817756;29;20042;-56
2022/09/20 10:07:39;;;;;;;4.45;0.38;;;26.60;39.20;;;;;;4820666;29;20432;-53
2022/09/20 10:10:18;;;;;;;0.95;0.40;;;26.70;39.10;;;;;;4821250;29;20042;-54
2022/09/20 10:12:55;;;;;;;1.85;0.10;;;26.70;39.00;;;;;;4819057;29;20050;-50
2022/09/20 10:15:30;;;;;;;9.73;0.77;;;26.80;39.00;;;;;;4821344;29;20077;-45
2022/09/20 10:18:11;;;;;;;2.35;0.85;;;26.80;38.90;;;;;;4819649;29;20071;-46
2022/09/20 10:20:51;;;;;;;1.95;0.25;;;26.80;38.70;;;;;;4819150;29;20038;-45
2022/09/20 10:23:31;;;;;;;5.57;0.20;;;26.80;38.60;;;;;;4819391;29;20038;-46
2022/09/20 10:26:08;;;;;;;0.80;0.10;;;26.90;38.40;;;;;;4819137;29;20054;-46
2022/09/20 10:28:50;;;;;;;6.20;0.20;;;26.90;38.20;;;;;;4818006;29;20773;-46
2022/09/20 10:31:34;;;;;;;1.80;0.10;;;26.90;38.10;;;;;;4817585;29;20046;-47
2022/09/20 10:34:19;;;;;;;2.17;0.20;;;26.90;37.90;;;;;;4825403;29;20058;-52
2022/09/20 10:36:52;;;;;;;2.15;0.10;;;26.90;37.90;;;;;;4814830;29;20046;-48
2022/09/20 10:39:25;;;;;;;2.53;0.10;;;26.90;37.90;;;;;;4817014;29;20069;-47
2022/09/20 10:45:02;;;;;;;;;;;27.00;37.90;;;;;;4822054;29;20091;-52
2022/09/20 10:47:35;;;;;;;6.32;0.80;;;26.90;37.80;;;;;;4821830;29;19960;-48
2022/09/20 10:50:17;;;;;;;0.70;0.10;;;26.90;37.40;;;;;;4821184;29;20077;-46
2022/09/20 10:52:58;;;;;;;2.40;0.22;;;27.00;37.30;;;;;;4817724;29;20783;-46
2022/09/20 10:55:41;;;;;;;1.65;0.10;;;26.90;37.10;;;;;;4819084;29;20080;-48
2022/09/20 10:58:35;;;;;;;6.80;0.28;;;26.80;34.00;;;;;;4816220;29;20050;-46
2022/09/20 11:01:10;;;;;;;2.22;0.10;;;26.50;33.10;;;;;;4820945;29;20516;-54
2022/09/20 11:03:56;;;;;;;1.42;0.40;;;26.10;32.80;;;;;;4820864;29;20494;-46
2022/09/20 11:06:32;;;;;;;4.07;0.20;;;25.70;32.80;;;;;;4816312;29;20057;-46
2022/09/20 11:09:02;;;;;;;5.90;0.30;;;25.30;33.00;;;;;;4817822;29;20292;-45
2022/09/20 11:11:34;;;;;;;5.88;0.68;;;25.10;33.30;;;;;;4821392;29;20112;-47
2022/09/20 11:14:05;;;;;;;3.08;0.35;;;24.90;33.60;;;;;;4818197;29;20134;-46
2022/09/20 11:16:39;;;;;;;1.42;0.20;;;24.70;33.70;;;;;;4821157;29;20133;-47
2022/09/20 11:19:17;;;;;;;2.25;0.10;;;24.50;33.80;;;;;;4820668;29;20133;-45
2022/09/20 11:21:48;;;;;;;0.98;0.10;;;24.40;33.60;;;;;;4820979;29;20049;-45
2022/09/20 11:24:26;;;;;;;0.47;0.15;;;24.20;33.60;;;;;;4820832;29;20050;-45
2022/09/20 11:26:56;;;;;;;3.22;0.43;;;24.10;33.70;;;;;;4820746;29;20071;-46
2022/09/20 11:29:31;;;;;;;5.78;0.52;;;24.00;34.10;;;;;;4820293;29;20046;-45
2022/09/20 11:32:07;;;;;;;5.10;0.20;;;23.90;34.10;;;;;;4821020;29;20051;-46
2022/09/20 11:34:41;;;;;;;7.38;0.10;;;23.90;34.50;;;;;;4820579;29;20050;-46
2022/09/20 11:37:09;;;;;;;9.90;0.35;;;23.80;34.60;;;;;;4821020;29;20148;-46
2022/09/20 11:39:45;;;;;;;3.78;0.90;;;23.80;34.40;;;;;;4817685;29;20039;-46
2022/09/20 11:42:17;;;;;;;1.10;0.13;;;23.70;34.50;;;;;;4820299;29;20053;-45
2022/09/20 11:44:45;;;;;;;0.63;0.25;;;23.70;34.60;;;;;;4820410;29;20550;-46
2022/09/20 11:47:19;;;;;;;2.92;0.10;;;23.70;34.60;;;;;;4820520;29;20042;-45
2022/09/20 11:50:06;;;;;;;2.75;0.20;;;23.70;34.50;;;;;;4820683;29;20050;-47
2022/09/20 11:52:54;;;;;;;2.20;0.13;;;23.60;34.40;;;;;;4816977;29;20134;-46
2022/09/20 11:55:35;;;;;;;4.90;0.50;;;23.60;34.40;;;;;;4820616;29;20126;-44
2022/09/20 11:58:06;;;;;;;4.47;0.30;;;23.60;34.60;;;;;;4819952;29;20047;-46
2022/09/20 12:00:37;;;;;;;1.13;0.10;;;23.50;34.60;;;;;;4820061;29;20049;-44
2022/09/20 12:03:07;;;;;;;2.03;0.15;;;23.40;34.60;;;;;;4819122;29;20077;-44
2022/09/20 12:05:40;;;;;;;3.28;0.10;;;23.40;34.50;;;;;;4818502;29;20392;-45
2022/09/20 12:08:17;;;;;;;4.32;0.20;;;23.30;34.50;;;;;;4820496;29;20126;-45
2022/09/20 12:10:56;;;;;;;2.35;0.10;;;23.20;34.40;;;;;;4833558;29;20055;-43
2022/09/20 12:13:27;;;;;;;3.65;0.80;;;23.20;34.60;;;;;;4819853;29;20519;-45
2022/09/20 12:16:00;;;;;;;3.83;0.40;;;23.00;34.90;;;;;;4820166;29;20137;-45
2022/09/20 12:18:31;;;;;;;0.20;0.10;;;23.00;35.30;;;;;;4820108;29;20568;-44
2022/09/20 12:21:15;;;;;;;4.00;0.55;;;22.90;35.50;;;;;;4820308;29;20052;-45
2022/09/20 12:24:22;;;;;;;3.65;0.20;;;22.80;35.70;;;;;;4819903;29;20043;-45
2022/09/20 12:26:51;;;;;;;3.95;0.55;;;22.80;36.00;;;;;;4819876;29;20062;-48
2022/09/20 12:30:04;;;;;;;9.35;1.80;;;22.70;36.20;;;;;;4819762;29;20038;-46
2022/09/20 12:32:55;;;;;;;3.55;0.32;;;22.60;36.30;;;;;;4819657;29;20063;-44
2022/09/20 12:36:13;;;;;;;1.92;0.20;;;22.50;36.40;;;;;;4825596;29;20469;-46
2022/09/20 12:39:04;;;;;;;7.68;0.20;;;22.40;36.60;;;;;;4819855;29;20088;-46
2022/09/20 12:41:47;;;;;;;3.45;0.20;;;22.40;36.80;;;;;;4817509;29;20153;-45
2022/09/20 12:44:26;;;;;;;3.28;0.57;;;22.30;36.70;;;;;;4816260;29;20154;-45
2022/09/20 12:46:57;;;;;;;4.32;1.40;;;22.30;36.90;;;;;;4819714;29;20500;-48
2022/09/20 12:52:55;;;;;;;3.13;0.20;;;22.30;37.40;;;;;;4814253;29;20061;-53
2022/09/20 12:55:38;;;;;;;14.00;0.52;;;22.20;37.40;;;;;;4836440;29;20096;-55
2022/09/20 12:58:17;;;;;;;3.03;0.35;;;22.10;37.60;;;;;;4820223;29;20519;-55
2022/09/20 13:00:47;;;;;;;1.45;0.35;;;22.00;38.30;;;;;;4824991;29;20046;-47
2022/09/20 13:03:28;;;;;;;3.05;0.20;;;22.00;37.80;;;;;;4825647;29;20416;-47
2022/09/20 13:06:23;;;;;;;3.90;1.30;;;22.00;38.10;;;;;;4825548;29;20078;-45
2022/09/20 13:08:55;;;;;;;4.45;0.10;;;22.00;37.90;;;;;;4786748;30;20141;-46
2022/09/20 13:11:28;;;;;;;0.90;0.30;;;22.00;38.00;;;;;;4786750;30;20673;-47
2022/09/20 13:13:58;;;;;;;1.77;0.17;;;22.00;38.10;;;;;;4786333;30;20067;-44
2022/09/20 13:16:30;;;;;;;1.10;0.30;;;22.10;38.20;;;;;;4784792;30;20062;-52
2022/09/20 13:19:04;;;;;;;2.28;0.75;;;22.10;38.20;;;;;;4785698;30;20101;-50
2022/09/20 13:21:32;;;;;;;1.15;0.10;;;22.20;38.30;;;;;;4787148;29;20063;-52
2022/09/20 13:24:01;;;;;;;5.03;0.40;;;22.40;38.50;;;;;;4786491;29;20094;-52
2022/09/20 13:26:34;;;;;;;13.02;0.73;;;22.60;38.30;;;;;;4786958;29;20055;-53
2022/09/20 13:29:03;;;;;;;2.72;0.15;;;22.80;38.10;;;;;;4786289;30;20082;-49
2022/09/20 13:31:34;;;;;;;2.78;0.32;;;23.10;37.70;;;;;;4785707;30;20068;-52
2022/09/20 13:34:21;;;;;;;8.88;0.35;;;23.40;37.40;;;;;;4787670;29;20104;-60
2022/09/20 13:36:51;;;;;;;4.88;0.20;;;23.60;37.20;;;;;;4785574;30;20150;-54
2022/09/20 13:39:29;;;;;;;4.55;0.45;;;23.70;37.10;;;;;;4771466;30;20137;-52
2022/09/20 13:42:02;;;;;;;3.38;0.40;;;23.90;36.80;;;;;;4785979;29;20440;-52
2022/09/20 13:44:33;;;;;;;2.85;0.20;;;24.10;36.60;;;;;;4801956;29;20095;-51
2022/09/20 13:47:00;;;;;;;4.75;1.00;;;24.50;36.40;;;;;;4824744;29;20143;-54
2022/09/20 13:49:31;;;;;;;9.38;0.50;;;24.80;35.80;;;;;;4823260;29;20058;-50
2022/09/20 13:51:58;;;;;;;4.22;0.20;;;25.00;35.30;;;;;;4824695;29;20126;-54